Flight Track Log - Related Links

Times and Time Zones

All times are in EDT time to prevent confusion due to time zone crossing. See the CSN6825 flight status page for this flight to view local times or setup timezone preferences in your user account.


Time Position Orientation Groundspeed Altitude Reporting Facility
EDT Latitude Longitude Course Direction KTS MPH feet Rate Location/Type
Wed 02:12:00 AM 43.9143 87.2627 273° West  Level Estimated
Wed 02:13:00 AM 43.9210 87.0511 273° West  Level Estimated
Wed 02:14:00 AM 43.9274 86.8395 272° West  Level Estimated
Wed 02:15:00 AM 43.9334 86.6279 272° West  Level Estimated
Wed 02:16:00 AM 43.9390 86.4162 272° West  Level Estimated
Wed 02:17:00 AM 43.9442 86.2044 272° West  Level Estimated
Wed 02:18:00 AM 43.9490 85.9927 272° West  Level Estimated
Wed 02:19:00 AM 43.9534 85.7808 272° West  Level Estimated
Wed 02:20:00 AM 43.9575 85.5690 272° West  Level Estimated
Wed 02:21:00 AM 43.9611 85.3571 271° West  Level Estimated
Wed 02:22:00 AM 43.9644 85.1452 271° West  Level Estimated
Wed 02:23:00 AM 43.9672 84.9333 271° West  Level Estimated
Wed 02:24:00 AM 43.9697 84.7214 271° West  Level Estimated
Wed 02:25:00 AM 43.9717 84.5095 271° West  Level Estimated
Wed 02:26:00 AM 43.9734 84.2975 271° West  Level Estimated
Wed 02:27:00 AM 43.9747 84.0855 271° West  Level Estimated
Wed 02:28:00 AM 43.9756 83.8735 270° West  Level Estimated
Wed 02:29:00 AM 43.9761 83.6616 270° West  Level Estimated
Wed 02:30:00 AM 43.9762 83.4496 270° West  Level Estimated
Wed 02:31:00 AM 43.9760 83.2376 270° West  Level Estimated
Wed 02:32:00 AM 43.9753 83.0256 270° West  Level Estimated
Wed 02:33:00 AM 43.9742 82.8136 270° West  Level Estimated
Wed 02:34:00 AM 43.9728 82.6016 270° West  Level Estimated
Wed 02:35:00 AM 43.9709 82.3897 269° West  Level Estimated
Wed 02:36:00 AM 43.9687 82.1777 269° West  Level Estimated
Wed 02:37:00 AM 43.9661 81.9658 269° West  Level Estimated
Wed 02:38:00 AM 43.9630 81.7539 269° West  Level Estimated
Wed 02:39:00 AM 43.9596 81.5420 269° West  Level Estimated
Wed 02:40:00 AM 43.9558 81.3303 269° West  Level Estimated
Wed 02:41:00 AM 43.9558 81.3303 334° Northwest  Level Estimated
Wed 02:42:00 AM 43.9558 81.3303 334° Northwest  Level Estimated
Wed 02:43:00 AM 43.9558 81.3303 334° Northwest  Level Estimated
Wed 02:44:00 AM 43.9558 81.3303 334° Northwest  Level Estimated
Wed 02:45:00 AM 43.9558 81.3303 334° Northwest  Level Estimated
Wed 02:46:00 AM 43.9558 81.3303 334° Northwest  Level Estimated
Wed 02:47:00 AM 43.9558 81.3303 334° Northwest  Level Estimated
Wed 02:48:00 AM 43.9558 81.3303 334° Northwest  Level Estimated
Wed 02:49:00 AM 43.9558 81.3303 334° Northwest  Level Estimated
Wed 02:50:00 AM 43.9558 81.3303 334° Northwest  Level Estimated
Wed 02:51:00 AM 43.9558 81.3303 334° Northwest  Level Estimated
Wed 02:52:00 AM 43.9558 81.3303 334° Northwest  Level Estimated
Wed 02:53:00 AM 43.9558 81.3303 334° Northwest  Level Estimated
Wed 02:54:00 AM 43.9558 81.3303 334° Northwest  Level Estimated
Wed 02:55:00 AM 43.9558 81.3303 334° Northwest  Level Estimated

Login

Don't have an account? Register now (free) for customized features, flight alerts, and more!